createdAt,value
2022-11-10T00:00:44.248Z,21.02
2022-11-10T00:03:33.587Z,21.75
2022-11-10T00:06:23.050Z,21.40
2022-11-10T00:09:13.461Z,21.90
2022-11-10T00:12:02.826Z,21.00
2022-11-10T00:15:09.826Z,23.08
2022-11-10T00:17:58.606Z,21.17
2022-11-10T00:23:51.924Z,22.48
2022-11-10T00:26:40.611Z,20.98
2022-11-10T00:29:29.723Z,21.80
2022-11-10T00:32:18.604Z,20.67
2022-11-10T00:35:08.039Z,21.30
2022-11-10T00:37:57.227Z,20.73
2022-11-10T00:40:46.449Z,20.75
2022-11-10T00:43:35.893Z,20.92
2022-11-10T00:46:24.838Z,22.42
2022-11-10T00:49:13.882Z,20.63
2022-11-10T00:52:02.587Z,22.92
2022-11-10T00:54:51.972Z,21.45
2022-11-10T00:57:41.289Z,21.08
2022-11-10T01:03:35.416Z,21.40
2022-11-10T01:06:24.801Z,21.30
2022-11-10T01:09:13.948Z,21.75
2022-11-10T01:12:03.373Z,21.85
2022-11-10T01:14:52.363Z,21.20
2022-11-10T01:17:41.478Z,20.60
2022-11-10T01:23:35.095Z,21.13
2022-11-10T01:26:25.140Z,20.98
2022-11-10T01:29:13.920Z,22.00
2022-11-10T01:32:03.439Z,20.92
2022-11-10T01:34:52.462Z,20.13
2022-11-10T01:37:43.220Z,20.50
2022-11-10T01:40:32.182Z,21.23
2022-11-10T01:43:21.478Z,20.23
2022-11-10T01:46:16.309Z,20.10
2022-11-10T01:49:07.276Z,20.88
2022-11-10T01:52:10.644Z,19.95
2022-11-10T01:55:00.105Z,21.55
2022-11-10T01:57:49.422Z,20.13
2022-11-10T02:00:39.027Z,20.05
2022-11-10T02:03:43.626Z,20.45
2022-11-10T02:09:44.238Z,19.52
2022-11-10T02:12:40.980Z,19.48
2022-11-10T02:15:30.309Z,18.98
2022-11-10T02:18:19.401Z,19.92
2022-11-10T02:21:10.217Z,19.35
2022-11-10T02:23:59.093Z,19.38
2022-11-10T02:26:53.958Z,19.73
2022-11-10T02:29:43.175Z,19.23
2022-11-10T02:32:32.162Z,19.60
2022-11-10T02:35:21.662Z,19.33
2022-11-10T02:38:11.005Z,19.33
2022-11-10T02:41:00.269Z,18.30
2022-11-10T02:43:49.545Z,17.80
2022-11-10T02:46:40.291Z,18.67
2022-11-10T02:49:29.517Z,18.17
2022-11-10T02:52:18.593Z,17.23
2022-11-10T02:55:08.347Z,17.73
2022-11-10T02:57:57.582Z,17.13
2022-11-10T03:00:46.842Z,17.50
2022-11-10T03:03:36.194Z,17.70
2022-11-10T03:06:25.287Z,17.50
2022-11-10T03:09:14.655Z,17.55
2022-11-10T03:12:03.878Z,17.48
2022-11-10T03:14:53.260Z,18.52
2022-11-10T03:17:42.260Z,17.58
2022-11-10T03:20:31.222Z,16.88
2022-11-10T03:23:22.022Z,17.65
2022-11-10T03:26:11.724Z,17.23
2022-11-10T03:29:00.629Z,16.60
2022-11-10T03:31:49.536Z,18.08
2022-11-10T03:34:38.372Z,16.92
2022-11-10T03:37:27.946Z,16.88
2022-11-10T03:40:17.154Z,16.50
2022-11-10T03:43:06.375Z,16.48
2022-11-10T03:45:55.445Z,16.17
2022-11-10T03:48:48.776Z,16.00
2022-11-10T03:51:40.846Z,16.45
2022-11-10T03:54:30.282Z,16.73
2022-11-10T03:57:19.743Z,16.98
2022-11-10T04:00:09.644Z,15.88
2022-11-10T04:02:58.361Z,15.63
2022-11-10T04:06:05.231Z,15.68
2022-11-10T04:09:02.767Z,16.02
2022-11-10T04:12:09.426Z,15.40
2022-11-10T04:15:16.039Z,14.70
2022-11-10T04:18:22.664Z,15.88
2022-11-10T04:21:10.978Z,14.60
2022-11-10T04:23:59.493Z,14.70
2022-11-10T04:26:49.672Z,15.40
2022-11-10T04:29:38.255Z,14.45
2022-11-10T04:32:26.747Z,15.13
2022-11-10T04:35:15.236Z,14.48
2022-11-10T04:38:03.664Z,15.10
2022-11-10T04:40:52.383Z,14.70
2022-11-10T04:43:41.889Z,14.68
2022-11-10T04:49:45.448Z,14.50
2022-11-10T04:52:34.353Z,13.63
2022-11-10T04:55:22.642Z,15.02
2022-11-10T04:58:11.540Z,14.57
2022-11-10T05:01:00.554Z,14.32
2022-11-10T05:10:00.375Z,14.35
2022-11-10T05:12:49.082Z,14.93
2022-11-10T05:15:37.343Z,14.63
2022-11-10T05:18:26.664Z,14.43
2022-11-10T05:21:15.463Z,14.00
2022-11-10T05:24:04.476Z,14.13
2022-11-10T05:29:56.933Z,14.52
2022-11-10T05:32:45.343Z,14.93
2022-11-10T05:35:34.381Z,14.00
2022-11-10T05:38:22.833Z,14.73
2022-11-10T05:41:11.387Z,13.98
2022-11-10T05:47:04.460Z,14.73
2022-11-10T05:49:52.886Z,15.00
2022-11-10T05:52:50.490Z,14.30
2022-11-10T05:55:38.923Z,15.73
2022-11-10T05:58:27.828Z,14.48
2022-11-10T06:01:16.983Z,15.88
2022-11-10T06:04:05.858Z,15.00
2022-11-10T06:06:54.326Z,15.25
2022-11-10T06:12:48.314Z,15.15
2022-11-10T06:15:37.362Z,14.27
2022-11-10T06:18:25.544Z,14.60
2022-11-10T06:21:13.661Z,13.68
2022-11-10T06:24:02.232Z,14.27
2022-11-10T06:26:50.702Z,14.60
2022-11-10T06:29:39.591Z,14.90
2022-11-10T06:32:28.335Z,14.43
2022-11-10T06:35:17.956Z,13.88
2022-11-10T06:38:10.181Z,13.20
2022-11-10T06:40:58.943Z,13.20
2022-11-10T06:46:51.226Z,12.30
2022-11-10T06:49:39.377Z,13.00
2022-11-10T06:52:27.700Z,12.57
2022-11-10T06:55:16.241Z,13.50
2022-11-10T06:58:05.262Z,11.65
2022-11-10T07:07:02.021Z,11.73
2022-11-10T07:09:50.674Z,11.55
2022-11-10T07:12:39.072Z,11.00
2022-11-10T07:15:27.369Z,11.15
2022-11-10T07:18:15.906Z,10.90
2022-11-10T07:21:08.707Z,10.45
2022-11-10T07:27:01.551Z,11.13
2022-11-10T07:29:49.708Z,10.98
2022-11-10T07:32:37.884Z,10.63
2022-11-10T07:35:26.489Z,10.65
2022-11-10T07:38:16.955Z,10.48
2022-11-10T07:41:05.209Z,11.07
2022-11-10T07:50:21.144Z,10.60
2022-11-10T07:53:12.187Z,10.00
2022-11-10T07:56:01.442Z,9.73
2022-11-10T07:58:50.584Z,9.45
2022-11-10T08:01:39.056Z,9.85
2022-11-10T08:04:27.859Z,9.73
2022-11-10T08:07:16.908Z,9.68
2022-11-10T08:10:05.851Z,9.20
2022-11-10T08:13:02.331Z,9.32
2022-11-10T08:15:50.423Z,9.13
2022-11-10T08:18:38.559Z,9.50
2022-11-10T08:21:26.864Z,9.10
2022-11-10T08:24:15.741Z,9.40
2022-11-10T08:27:04.348Z,8.68
2022-11-10T08:29:52.743Z,9.57
2022-11-10T08:32:40.917Z,9.20
2022-11-10T08:35:31.817Z,8.73
2022-11-10T08:38:25.520Z,9.43
2022-11-10T08:44:20.726Z,9.23
2022-11-10T08:47:09.626Z,7.53
2022-11-10T08:49:57.758Z,7.63
2022-11-10T08:52:46.251Z,8.65
2022-11-10T08:55:35.345Z,8.57
2022-11-10T08:58:26.189Z,8.20
2022-11-10T09:01:15.007Z,8.13
2022-11-10T09:04:03.510Z,8.38
2022-11-10T09:06:51.802Z,8.35
2022-11-10T09:09:40.401Z,7.65
2022-11-10T09:12:28.584Z,8.25
2022-11-10T09:15:17.704Z,7.60
2022-11-10T09:18:08.005Z,7.05
2022-11-10T09:24:00.736Z,8.02
2022-11-10T09:26:50.312Z,7.95
2022-11-10T09:29:38.623Z,7.55
2022-11-10T09:32:26.980Z,7.93
2022-11-10T09:35:15.773Z,8.27
2022-11-10T09:38:04.372Z,7.28
2022-11-10T09:41:06.612Z,8.13
2022-11-10T09:44:12.106Z,8.70
2022-11-10T09:47:05.558Z,7.82
2022-11-10T09:50:00.272Z,8.35
2022-11-10T09:52:52.577Z,9.30
2022-11-10T09:55:48.807Z,8.30
2022-11-10T09:58:48.661Z,8.90
2022-11-10T10:02:02.235Z,8.32
2022-11-10T10:05:27.743Z,9.05
2022-11-10T10:11:55.524Z,9.20
2022-11-10T10:15:09.851Z,9.73
2022-11-10T10:18:09.869Z,10.15
2022-11-10T10:21:32.003Z,11.55
2022-11-10T10:24:23.628Z,10.35
2022-11-10T10:27:24.107Z,11.63
2022-11-10T10:30:21.469Z,10.70
2022-11-10T10:33:21.097Z,12.07
2022-11-10T10:36:29.428Z,11.43
2022-11-10T10:39:32.475Z,11.63
2022-11-10T10:42:36.191Z,11.20
2022-11-10T10:45:28.027Z,12.43
2022-11-10T10:48:31.837Z,11.40
2022-11-10T10:51:46.949Z,10.90
2022-11-10T10:54:40.713Z,11.88
2022-11-10T10:57:31.456Z,12.07
2022-11-10T11:00:27.413Z,12.40
2022-11-10T11:03:27.085Z,11.77
2022-11-10T11:06:21.823Z,11.52
2022-11-10T11:09:18.017Z,12.07
2022-11-10T11:12:09.658Z,11.75
2022-11-10T11:15:24.584Z,12.20
2022-11-10T11:18:18.896Z,12.57
2022-11-10T11:21:39.900Z,11.60
2022-11-10T11:25:13.554Z,12.20
2022-11-10T11:28:21.235Z,12.43
2022-11-10T11:31:16.674Z,12.63
2022-11-10T11:34:24.090Z,12.25
2022-11-10T11:38:06.018Z,12.05
2022-11-10T11:41:10.595Z,12.98
2022-11-10T11:44:34.521Z,12.80
2022-11-10T11:48:09.941Z,12.50
2022-11-10T11:51:07.550Z,12.85
2022-11-10T11:54:14.090Z,13.18
2022-11-10T11:57:21.100Z,13.15
2022-11-10T12:00:17.667Z,13.00
2022-11-10T12:03:44.935Z,13.63
2022-11-10T12:06:50.459Z,12.82
2022-11-10T12:09:49.515Z,13.40
2022-11-10T12:12:55.956Z,14.50
2022-11-10T12:16:04.038Z,13.52
2022-11-10T12:19:01.695Z,13.65
2022-11-10T12:21:58.492Z,14.60
2022-11-10T12:24:55.335Z,14.73
2022-11-10T12:27:49.601Z,15.75
2022-11-10T12:30:39.743Z,15.07
2022-11-10T12:33:48.230Z,13.88
2022-11-10T12:36:36.811Z,14.15
2022-11-10T12:39:48.917Z,14.23
2022-11-10T12:42:40.912Z,14.50
2022-11-10T12:45:45.774Z,14.95
2022-11-10T12:48:58.460Z,14.52
2022-11-10T12:52:10.702Z,15.32
2022-11-10T12:54:59.576Z,15.07
2022-11-10T12:57:48.451Z,15.65
2022-11-10T13:00:57.969Z,15.48
2022-11-10T13:07:13.347Z,16.65
2022-11-10T13:10:21.103Z,16.02
2022-11-10T13:13:17.382Z,16.10
2022-11-10T13:16:06.058Z,16.05
2022-11-10T13:22:03.412Z,16.58
2022-11-10T13:27:49.594Z,16.45
2022-11-10T13:30:48.321Z,18.25
2022-11-10T13:33:40.632Z,17.52
2022-11-10T13:36:42.897Z,19.00
2022-11-10T13:39:35.192Z,20.05
2022-11-10T13:43:02.989Z,21.20
2022-11-10T13:45:51.594Z,22.15
2022-11-10T13:48:58.681Z,21.02
2022-11-10T13:52:00.649Z,20.27
2022-11-10T14:00:52.699Z,20.73
2022-11-10T14:03:50.415Z,18.08
2022-11-10T14:06:39.397Z,17.42
2022-11-10T14:09:43.297Z,18.58
2022-11-10T14:15:50.979Z,17.80
2022-11-10T14:18:50.599Z,17.35
2022-11-10T14:21:58.669Z,16.95
2022-11-10T14:25:09.001Z,16.63
2022-11-10T14:27:58.631Z,17.73
2022-11-10T14:30:54.736Z,18.25
2022-11-10T14:33:43.767Z,18.30
2022-11-10T14:36:32.093Z,16.38
2022-11-10T14:39:24.082Z,17.85
2022-11-10T14:42:22.377Z,16.40
2022-11-10T14:45:20.929Z,16.58
2022-11-10T14:48:21.581Z,17.50
2022-11-10T14:51:10.512Z,16.67
2022-11-10T14:54:00.581Z,16.70
2022-11-10T14:56:49.955Z,17.25
2022-11-10T14:59:40.471Z,16.90
2022-11-10T15:02:29.732Z,17.63
2022-11-10T15:05:18.958Z,18.77
2022-11-10T15:08:08.735Z,17.60
2022-11-10T15:10:58.695Z,17.67
2022-11-10T15:13:47.543Z,17.15
2022-11-10T15:16:40.995Z,19.25
2022-11-10T15:19:34.384Z,17.23
2022-11-10T15:22:33.299Z,17.23
2022-11-10T15:25:25.740Z,19.23
2022-11-10T15:28:34.035Z,18.08
2022-11-10T15:31:32.886Z,19.00
2022-11-10T15:34:51.601Z,17.75
2022-11-10T15:37:40.416Z,18.10
2022-11-10T15:40:56.008Z,19.15
2022-11-10T15:46:49.937Z,19.23
2022-11-10T15:52:44.448Z,19.77
2022-11-10T15:55:36.637Z,19.98
2022-11-10T15:58:26.515Z,19.50
2022-11-10T16:01:15.587Z,20.35
2022-11-10T16:04:04.425Z,20.02
2022-11-10T16:06:53.121Z,18.95
2022-11-10T16:09:41.763Z,20.27
2022-11-10T16:12:31.489Z,20.27
2022-11-10T16:15:22.764Z,20.42
2022-11-10T16:18:20.359Z,20.73
2022-11-10T16:21:09.527Z,20.50
2022-11-10T16:23:57.803Z,20.58
2022-11-10T16:26:46.791Z,20.92
2022-11-10T16:29:37.618Z,21.58
2022-11-10T16:32:26.797Z,20.02
2022-11-10T16:35:16.820Z,20.70
2022-11-10T16:38:05.637Z,21.02
2022-11-10T16:40:58.124Z,21.58
2022-11-10T16:43:46.760Z,21.05
2022-11-10T16:46:38.625Z,21.52
2022-11-10T16:52:18.333Z,21.35
2022-11-10T16:58:10.139Z,22.25
2022-11-10T17:01:02.686Z,22.60
2022-11-10T17:10:03.830Z,20.60
2022-11-10T17:12:52.767Z,23.20
2022-11-10T17:18:47.214Z,22.20
2022-11-10T17:21:38.542Z,22.73
2022-11-10T17:24:27.392Z,22.33
2022-11-10T17:27:16.260Z,23.02
2022-11-10T17:30:04.755Z,23.40
2022-11-10T17:39:04.589Z,22.55
2022-11-10T17:41:53.581Z,24.83
2022-11-10T17:47:46.237Z,24.50
2022-11-10T17:50:36.329Z,24.30
2022-11-10T17:53:28.364Z,23.08
2022-11-10T17:56:17.359Z,23.75
2022-11-10T17:59:05.841Z,25.33
2022-11-10T18:01:54.029Z,24.30
2022-11-10T18:04:42.450Z,23.42
2022-11-10T18:07:30.627Z,25.30
2022-11-10T18:10:20.263Z,25.13
2022-11-10T18:13:09.670Z,25.98
2022-11-10T18:16:03.676Z,25.30
2022-11-10T18:18:52.143Z,23.92
2022-11-10T18:21:40.591Z,25.33
2022-11-10T18:24:29.514Z,25.58
2022-11-10T18:27:17.942Z,25.52
2022-11-10T18:30:07.835Z,24.80
2022-11-10T18:32:56.653Z,25.85
2022-11-10T18:35:44.961Z,26.30
2022-11-10T18:38:33.521Z,26.40
2022-11-10T18:41:40.203Z,25.38
2022-11-10T18:44:28.696Z,25.92
2022-11-10T18:47:17.466Z,27.42
2022-11-10T18:50:06.939Z,26.00
2022-11-10T18:52:55.141Z,26.13
2022-11-10T18:58:56.439Z,24.88
2022-11-10T19:01:45.694Z,26.75
2022-11-10T19:04:34.322Z,26.48
2022-11-10T19:07:23.187Z,24.33
2022-11-10T19:10:11.739Z,26.08
2022-11-10T19:13:00.359Z,26.50
2022-11-10T19:18:53.150Z,25.77
2022-11-10T19:21:42.170Z,26.90
2022-11-10T19:24:42.413Z,24.80
2022-11-10T19:27:39.591Z,26.60
2022-11-10T19:30:28.615Z,26.65
2022-11-10T19:33:17.034Z,25.88
2022-11-10T19:36:10.449Z,27.60
2022-11-10T19:38:59.532Z,25.80
2022-11-10T19:41:48.043Z,26.45
2022-11-10T19:44:36.337Z,27.67
2022-11-10T19:47:24.882Z,25.58
2022-11-10T19:50:13.695Z,26.98
2022-11-10T19:53:02.216Z,25.65
2022-11-10T19:58:55.764Z,25.52
2022-11-10T20:05:05.962Z,25.92
2022-11-10T20:08:12.519Z,24.45
2022-11-10T20:11:03.169Z,24.30
2022-11-10T20:13:54.933Z,25.15
2022-11-10T20:19:48.016Z,24.90
2022-11-10T20:22:36.373Z,25.83
2022-11-10T20:25:24.707Z,25.80
2022-11-10T20:28:15.078Z,27.25
2022-11-10T20:31:04.266Z,25.20
2022-11-10T20:36:58.800Z,25.40
2022-11-10T20:42:51.982Z,24.80
2022-11-10T20:45:43.907Z,24.08
2022-11-10T20:48:34.399Z,28.38
2022-11-10T20:51:23.191Z,25.75
2022-11-10T20:54:11.332Z,24.10
2022-11-10T20:56:59.972Z,24.88
2022-11-10T20:59:49.608Z,25.35
2022-11-10T21:02:38.114Z,25.00
2022-11-10T21:05:26.468Z,23.60
2022-11-10T21:08:15.392Z,25.27
2022-11-10T21:11:11.447Z,24.95
2022-11-10T21:17:04.325Z,24.30
2022-11-10T21:19:53.031Z,24.02
2022-11-10T21:22:42.313Z,25.15
2022-11-10T21:25:31.272Z,24.95
2022-11-10T21:28:19.512Z,23.67
2022-11-10T21:31:08.630Z,26.05
2022-11-10T21:34:03.594Z,23.08
2022-11-10T21:36:52.077Z,24.38
2022-11-10T21:39:41.014Z,24.42
2022-11-10T21:42:34.238Z,25.02
2022-11-10T21:45:24.410Z,24.67
2022-11-10T21:48:12.692Z,23.83
2022-11-10T21:51:05.835Z,23.65
2022-11-10T21:53:53.922Z,22.23
2022-11-10T21:56:42.767Z,24.08
2022-11-10T21:59:31.204Z,23.42
2022-11-10T22:05:24.152Z,24.23
2022-11-10T22:08:13.135Z,24.85
2022-11-10T22:11:20.631Z,24.55
2022-11-10T22:14:33.974Z,22.98
2022-11-10T22:20:45.485Z,22.98
2022-11-10T22:23:52.274Z,23.33
2022-11-10T22:26:40.418Z,23.20
2022-11-10T22:29:32.085Z,24.33
2022-11-10T22:35:09.631Z,25.15
2022-11-10T22:37:58.555Z,23.20
2022-11-10T22:41:05.395Z,23.33
2022-11-10T22:44:06.423Z,23.20
2022-11-10T22:46:55.523Z,24.60
2022-11-10T22:49:43.850Z,24.13
2022-11-10T22:52:33.044Z,24.30
2022-11-10T22:55:21.820Z,23.75
2022-11-10T22:58:10.619Z,23.55
2022-11-10T23:01:27.843Z,24.30
2022-11-10T23:04:18.072Z,27.67
2022-11-10T23:07:06.712Z,26.17
2022-11-10T23:09:55.154Z,25.02
2022-11-10T23:22:03.701Z,26.15
2022-11-10T23:27:56.013Z,24.17
2022-11-10T23:30:44.206Z,25.05
2022-11-10T23:33:33.554Z,25.50
2022-11-10T23:36:23.711Z,25.75
2022-11-10T23:39:12.587Z,24.38
2022-11-10T23:42:01.161Z,25.63
2022-11-10T23:44:49.832Z,23.95
2022-11-10T23:47:38.003Z,26.92
2022-11-10T23:50:26.959Z,25.35
2022-11-10T23:53:16.330Z,25.88
2022-11-10T23:56:07.834Z,23.67
2022-11-10T23:58:55.938Z,25.05
